createdAt,value
2023-11-23T00:00:29.451Z,0.10
2023-11-23T00:02:56.155Z,0.18
2023-11-23T00:05:22.936Z,0.11
2023-11-23T00:07:49.877Z,0.07
2023-11-23T00:10:16.602Z,0.22
2023-11-23T00:12:43.402Z,0.28
2023-11-23T00:15:10.271Z,0.41
2023-11-23T00:17:37.140Z,0.48
2023-11-23T00:20:07.211Z,0.39
2023-11-23T00:22:34.549Z,0.52
2023-11-23T00:25:01.462Z,0.57
2023-11-23T00:27:28.279Z,0.59
2023-11-23T00:29:55.203Z,0.63
2023-11-23T00:32:21.913Z,0.45
2023-11-23T00:34:48.744Z,0.54
2023-11-23T00:37:15.938Z,0.59
2023-11-23T00:39:43.600Z,0.55
2023-11-23T00:42:10.711Z,0.58
2023-11-23T00:44:38.692Z,0.10
2023-11-23T00:47:05.901Z,-0.25
2023-11-23T00:49:32.609Z,0.08
2023-11-23T00:51:59.312Z,-0.21
2023-11-23T00:54:26.334Z,-0.18
2023-11-23T00:56:53.048Z,-0.85
2023-11-23T00:59:19.773Z,-0.44
2023-11-23T01:01:46.958Z,-0.26
2023-11-23T01:04:14.488Z,-0.40
2023-11-23T01:06:43.033Z,-0.09
2023-11-23T01:09:10.567Z,0.10
2023-11-23T01:11:37.475Z,0.18
2023-11-23T01:14:04.530Z,0.19
2023-11-23T01:16:31.304Z,0.24
2023-11-23T01:18:58.014Z,0.23
2023-11-23T01:21:24.737Z,0.27
2023-11-23T01:23:51.491Z,0.02
2023-11-23T01:26:18.260Z,0.18
2023-11-23T01:28:44.956Z,0.17
2023-11-23T01:31:11.731Z,0.24
2023-11-23T01:33:38.508Z,-0.13
2023-11-23T01:36:05.834Z,0.11
2023-11-23T01:38:32.549Z,0.25
2023-11-23T01:40:59.297Z,0.26
2023-11-23T01:43:26.061Z,0.28
2023-11-23T01:45:52.808Z,0.33
2023-11-23T01:48:20.988Z,0.31
2023-11-23T01:50:49.194Z,0.34
2023-11-23T01:53:16.023Z,0.17
2023-11-23T01:55:42.872Z,0.10
2023-11-23T01:58:11.649Z,0.03
2023-11-23T02:00:39.230Z,0.26
2023-11-23T02:03:06.290Z,0.21
2023-11-23T02:05:33.120Z,0.38
2023-11-23T02:07:59.870Z,0.46
2023-11-23T02:10:26.669Z,0.54
2023-11-23T02:12:54.169Z,0.39
2023-11-23T02:15:21.102Z,0.39
2023-11-23T02:17:48.005Z,0.55
2023-11-23T02:20:15.140Z,0.64
2023-11-23T02:22:41.859Z,0.14
2023-11-23T02:25:08.716Z,0.04
2023-11-23T02:27:36.620Z,-0.42
2023-11-23T02:30:04.444Z,-0.21
2023-11-23T02:32:31.264Z,-0.16
2023-11-23T02:34:57.950Z,0.11
2023-11-23T02:37:24.725Z,0.15
2023-11-23T02:39:51.497Z,0.12
2023-11-23T02:42:18.357Z,0.14
2023-11-23T02:44:45.087Z,0.16
2023-11-23T02:47:11.804Z,0.33
2023-11-23T02:49:38.457Z,0.39
2023-11-23T02:52:06.062Z,0.18
2023-11-23T02:54:32.847Z,0.00
2023-11-23T02:56:59.574Z,0.16
2023-11-23T02:59:26.319Z,-0.02
2023-11-23T03:01:53.107Z,-0.37
2023-11-23T03:04:19.844Z,-0.71
2023-11-23T03:06:47.169Z,-0.68
2023-11-23T03:09:14.192Z,-0.63
2023-11-23T03:11:41.794Z,-0.59
2023-11-23T03:14:09.631Z,-0.67
2023-11-23T03:16:36.568Z,-0.40
2023-11-23T03:19:04.505Z,-0.36
2023-11-23T03:21:31.302Z,-0.26
2023-11-23T03:23:58.030Z,-0.26
2023-11-23T03:26:25.239Z,-0.21
2023-11-23T03:28:51.996Z,-0.16
2023-11-23T03:31:18.708Z,-0.10
2023-11-23T03:33:45.410Z,-0.06
2023-11-23T03:36:12.185Z,-0.09
2023-11-23T03:38:38.972Z,-0.11
2023-11-23T03:41:05.729Z,-0.15
2023-11-23T03:43:32.428Z,-0.17
2023-11-23T03:45:59.121Z,-0.31
2023-11-23T03:48:26.836Z,-0.33
2023-11-23T03:50:53.646Z,-0.38
2023-11-23T03:53:20.474Z,-0.58
2023-11-23T03:55:47.148Z,-0.64
2023-11-23T03:58:13.810Z,-0.68
2023-11-23T04:00:41.425Z,-0.71
2023-11-23T04:03:08.945Z,-0.74
2023-11-23T04:05:35.759Z,-0.82
2023-11-23T04:08:02.452Z,-0.94
2023-11-23T04:10:29.176Z,-0.99
2023-11-23T04:12:55.821Z,-1.02
2023-11-23T04:15:22.534Z,-1.01
2023-11-23T04:17:49.363Z,-1.01
2023-11-23T04:20:16.980Z,-1.04
2023-11-23T04:22:43.640Z,-1.06
2023-11-23T04:25:10.577Z,-1.05
2023-11-23T04:27:37.329Z,-1.07
2023-11-23T04:30:05.696Z,-1.06
2023-11-23T04:32:34.135Z,-1.20
2023-11-23T04:35:01.001Z,-1.27
2023-11-23T04:37:27.662Z,-1.27
2023-11-23T04:39:54.379Z,-1.32
2023-11-23T04:42:21.172Z,-1.38
2023-11-23T04:44:48.035Z,-1.41
2023-11-23T04:47:14.753Z,-1.41
2023-11-23T04:49:41.487Z,-1.47
2023-11-23T04:52:08.167Z,-1.45
2023-11-23T04:54:34.921Z,-1.49
2023-11-23T04:57:01.665Z,-1.53
2023-11-23T04:59:28.444Z,-1.61
2023-11-23T05:01:55.914Z,-1.63
2023-11-23T05:04:22.647Z,-1.65
2023-11-23T05:06:49.836Z,-1.67
2023-11-23T05:09:16.669Z,-1.61
2023-11-23T05:11:43.464Z,-1.61
2023-11-23T05:14:10.547Z,-1.62
2023-11-23T05:16:37.318Z,-1.70
2023-11-23T05:19:04.159Z,-1.71
2023-11-23T05:21:30.917Z,-1.76
2023-11-23T05:23:59.591Z,-1.73
2023-11-23T05:26:28.003Z,-1.76
2023-11-23T05:28:54.719Z,-1.81
2023-11-23T05:31:21.462Z,-1.76
2023-11-23T05:33:48.234Z,-1.84
2023-11-23T05:36:15.193Z,-1.84
2023-11-23T05:38:42.213Z,-1.98
2023-11-23T05:41:09.089Z,-1.86
2023-11-23T05:43:36.054Z,-1.84
2023-11-23T05:46:02.726Z,-1.83
2023-11-23T05:48:29.474Z,-1.94
2023-11-23T05:50:56.203Z,-1.97
2023-11-23T05:53:22.936Z,-1.93
2023-11-23T05:55:49.686Z,-1.97
2023-11-23T05:58:16.421Z,-1.93
2023-11-23T06:00:43.333Z,-1.96
2023-11-23T06:03:10.136Z,-2.00
2023-11-23T06:05:37.285Z,-2.04
2023-11-23T06:08:05.294Z,-2.06
2023-11-23T06:10:34.532Z,-2.06
2023-11-23T06:13:02.136Z,-2.07
2023-11-23T06:15:29.102Z,-2.08
2023-11-23T06:18:07.355Z,-2.15
2023-11-23T06:20:40.546Z,-2.12
2023-11-23T06:23:07.239Z,-2.11
2023-11-23T06:25:33.981Z,-2.09
2023-11-23T06:28:12.446Z,-2.06
2023-11-23T06:30:42.688Z,-2.16
2023-11-23T06:33:09.600Z,-2.21
2023-11-23T06:35:36.510Z,-2.23
2023-11-23T06:38:04.408Z,-2.15
2023-11-23T06:40:31.518Z,-2.13
2023-11-23T06:42:58.185Z,-2.10
2023-11-23T06:45:24.859Z,-2.08
2023-11-23T06:47:51.661Z,-2.19
2023-11-23T06:50:18.395Z,-2.17
2023-11-23T06:52:46.520Z,-2.07
2023-11-23T06:55:15.276Z,-2.06
2023-11-23T06:57:47.953Z,-2.05
2023-11-23T07:00:25.062Z,-2.04
2023-11-23T07:02:54.334Z,-2.04
2023-11-23T07:05:21.151Z,-2.01
2023-11-23T07:07:48.549Z,-1.95
2023-11-23T07:10:19.740Z,-1.92
2023-11-23T07:12:48.316Z,-1.91
2023-11-23T07:15:15.205Z,-1.98
2023-11-23T07:17:42.824Z,-1.90
2023-11-23T07:20:12.882Z,-1.79
2023-11-23T07:22:40.399Z,-1.88
2023-11-23T07:25:11.444Z,-2.04
2023-11-23T07:27:38.820Z,-1.86
2023-11-23T07:30:09.716Z,-1.73
2023-11-23T07:32:37.410Z,-1.63
2023-11-23T07:35:05.723Z,-1.56
2023-11-23T07:37:35.060Z,-1.51
2023-11-23T07:40:13.354Z,-1.31
2023-11-23T07:42:41.751Z,0.82
2023-11-23T07:45:09.000Z,3.55
2023-11-23T07:47:36.232Z,5.43
2023-11-23T07:50:03.175Z,7.56
2023-11-23T07:52:30.312Z,9.11
2023-11-23T07:54:56.950Z,10.30
2023-11-23T07:57:24.543Z,10.53
2023-11-23T07:59:57.749Z,10.36
2023-11-23T08:02:27.620Z,11.80
2023-11-23T08:04:54.360Z,12.77
2023-11-23T08:07:21.835Z,12.58
2023-11-23T08:09:48.787Z,12.88
2023-11-23T08:12:15.552Z,13.59
2023-11-23T08:14:42.229Z,14.24
2023-11-23T08:17:10.138Z,13.08
2023-11-23T08:19:37.080Z,11.87
2023-11-23T08:22:04.024Z,12.88
2023-11-23T08:24:30.819Z,11.10
2023-11-23T08:26:57.886Z,12.39
2023-11-23T08:29:24.702Z,13.52
2023-11-23T08:31:52.558Z,15.01
2023-11-23T08:34:19.400Z,16.09
2023-11-23T08:36:46.232Z,17.49
2023-11-23T08:39:13.446Z,16.64
2023-11-23T08:41:40.550Z,15.63
2023-11-23T08:44:07.367Z,12.72
2023-11-23T08:46:37.394Z,13.70
2023-11-23T08:49:04.256Z,14.41
2023-11-23T08:51:31.144Z,14.16
2023-11-23T08:53:58.071Z,15.20
2023-11-23T08:56:25.088Z,15.54
2023-11-23T08:58:51.920Z,14.38
2023-11-23T09:01:18.649Z,13.43
2023-11-23T09:03:45.880Z,11.84
2023-11-23T09:06:13.844Z,8.21
2023-11-23T09:08:41.473Z,9.17
2023-11-23T09:11:08.458Z,9.90
2023-11-23T09:13:35.267Z,11.98
2023-11-23T09:16:02.036Z,13.77
2023-11-23T09:18:28.800Z,10.98
2023-11-23T09:20:58.334Z,10.95
2023-11-23T09:23:27.206Z,9.55
2023-11-23T09:25:54.427Z,11.29
2023-11-23T09:28:22.547Z,9.62
2023-11-23T09:30:49.554Z,10.39
2023-11-23T09:33:19.967Z,12.50
2023-11-23T09:35:47.446Z,15.25
2023-11-23T09:38:14.242Z,11.73
2023-11-23T09:40:42.034Z,13.30
2023-11-23T09:43:09.128Z,10.39
2023-11-23T09:45:37.148Z,14.44
2023-11-23T09:48:07.182Z,12.37
2023-11-23T09:50:37.967Z,10.24
2023-11-23T09:53:09.167Z,9.49
2023-11-23T09:55:36.019Z,9.09
2023-11-23T09:58:05.907Z,10.76
2023-11-23T10:00:36.511Z,9.34
2023-11-23T10:03:08.374Z,11.35
2023-11-23T10:05:36.107Z,9.70
2023-11-23T10:08:03.777Z,7.55
2023-11-23T10:10:31.017Z,7.42
2023-11-23T10:12:57.769Z,8.00
2023-11-23T10:15:26.346Z,8.43
2023-11-23T10:17:53.179Z,8.91
2023-11-23T10:20:19.967Z,10.21
2023-11-23T10:22:51.096Z,13.71
2023-11-23T10:25:35.811Z,13.83
2023-11-23T10:28:06.664Z,11.06
2023-11-23T10:30:34.306Z,8.57
2023-11-23T10:33:01.989Z,13.93
2023-11-23T10:35:43.190Z,11.68
2023-11-23T10:38:09.984Z,13.04
2023-11-23T10:40:36.855Z,11.87
2023-11-23T10:43:04.405Z,12.95
2023-11-23T10:45:36.968Z,15.21
2023-11-23T10:48:04.654Z,14.38
2023-11-23T10:50:33.221Z,11.27
2023-11-23T10:53:02.912Z,14.59
2023-11-23T10:55:29.682Z,15.21
2023-11-23T10:58:05.619Z,12.38
2023-11-23T11:00:32.757Z,10.15
2023-11-23T11:03:02.499Z,13.05
2023-11-23T11:05:36.262Z,16.05
2023-11-23T11:08:06.560Z,12.70
2023-11-23T11:10:41.718Z,16.29
2023-11-23T11:13:13.877Z,15.96
2023-11-23T11:16:04.567Z,16.11
2023-11-23T11:18:34.799Z,12.87
2023-11-23T11:21:09.430Z,13.06
2023-11-23T11:23:46.811Z,11.02
2023-11-23T11:26:27.239Z,10.57
2023-11-23T11:28:56.003Z,14.18
2023-11-23T11:31:51.508Z,14.63
2023-11-23T11:34:22.028Z,8.91
2023-11-23T11:37:00.264Z,9.95
2023-11-23T11:39:36.934Z,10.11
2023-11-23T11:42:05.301Z,10.32
2023-11-23T11:44:36.500Z,11.53
2023-11-23T11:47:05.936Z,8.50
2023-11-23T11:49:32.831Z,8.31
2023-11-23T11:51:59.517Z,10.92
2023-11-23T11:54:26.594Z,9.34
2023-11-23T11:56:54.194Z,9.02
2023-11-23T11:59:22.170Z,9.57
2023-11-23T12:01:50.166Z,8.68
2023-11-23T12:04:23.293Z,7.70
2023-11-23T12:06:50.225Z,6.98
2023-11-23T12:09:33.970Z,5.85
2023-11-23T12:12:06.554Z,5.31
2023-11-23T12:14:35.750Z,5.94
2023-11-23T12:17:13.516Z,5.52
2023-11-23T12:19:54.415Z,5.40
2023-11-23T12:22:24.123Z,5.86
2023-11-23T12:24:52.363Z,6.59
2023-11-23T12:27:21.797Z,6.64
2023-11-23T12:29:48.944Z,7.03
2023-11-23T12:32:15.975Z,7.07
2023-11-23T12:34:42.710Z,7.54
2023-11-23T12:37:09.525Z,7.67
2023-11-23T12:39:36.334Z,7.78
2023-11-23T12:42:03.578Z,7.98
2023-11-23T12:44:30.452Z,7.70
2023-11-23T12:46:57.509Z,7.70
2023-11-23T12:49:24.568Z,7.71
2023-11-23T12:51:51.441Z,7.72
2023-11-23T12:54:18.237Z,7.47
2023-11-23T12:56:44.994Z,7.72
2023-11-23T12:59:11.820Z,6.12
2023-11-23T13:01:40.518Z,6.25
2023-11-23T13:04:09.734Z,5.53
2023-11-23T13:06:37.530Z,5.60
2023-11-23T13:09:05.357Z,5.79
2023-11-23T13:11:32.697Z,5.36
2023-11-23T13:13:59.598Z,5.47
2023-11-23T13:16:26.404Z,5.91
2023-11-23T13:19:10.373Z,5.57
2023-11-23T13:21:40.096Z,5.96
2023-11-23T13:24:08.090Z,6.00
2023-11-23T13:26:35.413Z,5.61
2023-11-23T13:29:02.289Z,5.29
2023-11-23T13:31:29.350Z,5.05
2023-11-23T13:33:57.168Z,4.97
2023-11-23T13:36:24.050Z,4.77
2023-11-23T13:38:51.721Z,4.98
2023-11-23T13:41:19.668Z,5.55
2023-11-23T13:43:46.843Z,6.09
2023-11-23T13:46:15.738Z,5.80
2023-11-23T13:48:44.501Z,5.90
2023-11-23T13:51:14.000Z,5.82
2023-11-23T13:53:40.781Z,5.36
2023-11-23T13:56:11.330Z,5.48
2023-11-23T13:58:38.509Z,5.46
2023-11-23T14:01:05.289Z,5.50
2023-11-23T14:03:33.419Z,5.70
2023-11-23T14:06:00.593Z,6.37
2023-11-23T14:08:27.364Z,6.22
2023-11-23T14:10:54.284Z,6.68
2023-11-23T14:13:21.066Z,6.82
2023-11-23T14:15:47.986Z,6.95
2023-11-23T14:18:15.896Z,6.56
2023-11-23T14:20:45.346Z,6.14
2023-11-23T14:23:14.386Z,5.62
2023-11-23T14:25:44.163Z,5.92
2023-11-23T14:28:16.085Z,6.04
2023-11-23T14:30:43.798Z,6.25
2023-11-23T14:33:22.137Z,6.42
2023-11-23T14:35:53.430Z,6.15
2023-11-23T14:38:21.199Z,6.17
2023-11-23T14:40:48.309Z,5.88
2023-11-23T14:43:19.858Z,5.68
2023-11-23T14:45:47.255Z,5.59
2023-11-23T14:48:15.750Z,5.56
2023-11-23T14:50:42.793Z,5.46
2023-11-23T14:53:09.513Z,5.35
2023-11-23T14:55:36.523Z,5.28
2023-11-23T14:58:03.358Z,5.15
2023-11-23T15:00:31.463Z,5.17
2023-11-23T15:02:59.259Z,5.08
2023-11-23T15:05:25.968Z,4.88
2023-11-23T15:07:53.738Z,4.77
2023-11-23T15:10:21.250Z,4.71
2023-11-23T15:12:53.200Z,4.64
2023-11-23T15:15:21.554Z,4.61
2023-11-23T15:17:50.032Z,4.32
2023-11-23T15:20:17.213Z,4.34
2023-11-23T15:22:43.987Z,4.32
2023-11-23T15:25:14.199Z,4.33
2023-11-23T15:27:43.519Z,4.25
2023-11-23T15:30:12.325Z,4.23
2023-11-23T15:32:40.121Z,4.00
2023-11-23T15:35:08.607Z,3.93
2023-11-23T15:37:35.742Z,3.95
2023-11-23T15:40:02.642Z,3.87
2023-11-23T15:42:29.519Z,3.82
2023-11-23T15:44:56.203Z,3.68
2023-11-23T15:47:24.200Z,3.67
2023-11-23T15:49:51.685Z,3.53
2023-11-23T15:52:18.399Z,3.50
2023-11-23T15:54:45.255Z,3.37
2023-11-23T15:57:12.078Z,3.19
2023-11-23T15:59:38.837Z,3.18
2023-11-23T16:02:05.635Z,3.13
2023-11-23T16:04:33.021Z,3.20
2023-11-23T16:07:01.807Z,3.16
2023-11-23T16:09:28.833Z,3.17
2023-11-23T16:11:55.553Z,3.11
2023-11-23T16:14:22.684Z,3.06
2023-11-23T16:16:49.477Z,2.98
2023-11-23T16:19:16.190Z,2.99
2023-11-23T16:21:42.876Z,3.02
2023-11-23T16:24:11.700Z,2.93
2023-11-23T16:26:38.813Z,2.71
2023-11-23T16:29:11.187Z,2.81
2023-11-23T16:31:43.286Z,2.76
2023-11-23T16:34:10.996Z,2.77
2023-11-23T16:36:40.368Z,2.80
2023-11-23T16:39:08.580Z,2.14
2023-11-23T16:41:35.769Z,2.27
2023-11-23T16:44:02.740Z,2.52
2023-11-23T16:46:29.477Z,2.51
2023-11-23T16:48:56.342Z,2.54
2023-11-23T16:51:24.044Z,2.56
2023-11-23T16:53:53.691Z,2.52
2023-11-23T16:56:22.370Z,2.46
2023-11-23T16:58:49.122Z,2.43
2023-11-23T17:01:16.213Z,2.40
2023-11-23T17:03:43.136Z,2.45
2023-11-23T17:06:10.289Z,2.50
2023-11-23T17:08:39.112Z,2.26
2023-11-23T17:11:10.000Z,2.12
2023-11-23T17:13:37.455Z,2.19
2023-11-23T17:16:04.560Z,1.98
2023-11-23T17:18:31.482Z,1.98
2023-11-23T17:20:58.507Z,1.97
2023-11-23T17:23:25.969Z,2.11
2023-11-23T17:25:53.075Z,2.18
2023-11-23T17:28:22.792Z,1.99
2023-11-23T17:30:49.651Z,1.57
2023-11-23T17:33:20.473Z,1.68
2023-11-23T17:35:47.841Z,1.66
2023-11-23T17:38:17.194Z,1.63
2023-11-23T17:40:44.114Z,1.68
2023-11-23T17:43:10.789Z,1.70
2023-11-23T17:45:37.542Z,1.67
2023-11-23T17:48:05.261Z,1.68
2023-11-23T17:50:32.264Z,1.68
2023-11-23T17:52:59.775Z,1.51
2023-11-23T17:55:28.422Z,1.56
2023-11-23T17:57:55.944Z,1.58
2023-11-23T18:00:23.170Z,1.54
2023-11-23T18:02:50.030Z,1.38
2023-11-23T18:05:18.671Z,1.22
2023-11-23T18:07:45.473Z,1.19
2023-11-23T18:10:15.767Z,1.12
2023-11-23T18:12:43.436Z,1.13
2023-11-23T18:15:11.647Z,1.20
2023-11-23T18:17:39.101Z,0.99
2023-11-23T18:20:06.510Z,1.08
2023-11-23T18:22:33.369Z,1.10
2023-11-23T18:25:01.438Z,1.07
2023-11-23T18:27:28.236Z,1.08
2023-11-23T18:29:55.012Z,0.99
2023-11-23T18:32:21.722Z,0.82
2023-11-23T18:34:48.668Z,0.83
2023-11-23T18:37:16.674Z,0.63
2023-11-23T18:39:43.631Z,0.71
2023-11-23T18:42:12.748Z,0.79
2023-11-23T18:44:41.671Z,0.76
2023-11-23T18:47:08.622Z,0.81
2023-11-23T18:49:35.362Z,0.85
2023-11-23T18:52:03.967Z,0.84
2023-11-23T18:54:31.228Z,0.79
2023-11-23T18:56:58.264Z,0.85
2023-11-23T18:59:25.503Z,0.86
2023-11-23T19:01:55.261Z,0.90
2023-11-23T19:04:23.387Z,0.69
2023-11-23T19:06:53.295Z,0.81
2023-11-23T19:09:22.921Z,0.78
2023-11-23T19:11:50.614Z,0.76
2023-11-23T19:14:17.501Z,0.68
2023-11-23T19:16:44.400Z,0.72
2023-11-23T19:19:12.966Z,0.61
2023-11-23T19:21:40.440Z,0.60
2023-11-23T19:24:09.021Z,0.62
2023-11-23T19:26:36.911Z,0.54
2023-11-23T19:29:04.294Z,0.36
2023-11-23T19:31:33.969Z,0.31
2023-11-23T19:34:01.761Z,0.41
2023-11-23T19:36:29.036Z,0.41
2023-11-23T19:38:56.204Z,0.42
2023-11-23T19:41:25.283Z,0.45
2023-11-23T19:43:52.196Z,0.50
2023-11-23T19:46:19.223Z,0.50
2023-11-23T19:48:46.373Z,0.48
2023-11-23T19:51:19.981Z,0.36
2023-11-23T19:53:51.141Z,0.40
2023-11-23T19:56:18.005Z,0.44
2023-11-23T19:58:44.728Z,0.43
2023-11-23T20:01:11.633Z,0.39
2023-11-23T20:03:38.523Z,0.43
2023-11-23T20:06:05.408Z,0.30
2023-11-23T20:08:33.101Z,0.25
2023-11-23T20:10:59.982Z,0.26
2023-11-23T20:13:26.786Z,0.22
2023-11-23T20:15:53.688Z,0.23
2023-11-23T20:18:20.665Z,0.06
2023-11-23T20:20:47.457Z,0.10
2023-11-23T20:23:14.303Z,0.10
2023-11-23T20:25:41.124Z,0.10
2023-11-23T20:28:11.025Z,0.07
2023-11-23T20:30:38.095Z,0.07
2023-11-23T20:33:05.181Z,-0.01
2023-11-23T20:35:32.038Z,-0.48
2023-11-23T20:37:59.106Z,-0.18
2023-11-23T20:40:25.852Z,-0.22
2023-11-23T20:42:52.737Z,-0.08
2023-11-23T20:45:19.752Z,-0.08
2023-11-23T20:47:47.722Z,-0.09
2023-11-23T20:50:15.096Z,-0.11
2023-11-23T20:52:42.955Z,-0.18
2023-11-23T20:55:11.955Z,-0.18
2023-11-23T20:57:40.721Z,-0.25
2023-11-23T21:00:12.482Z,-0.13
2023-11-23T21:02:39.993Z,-0.18
2023-11-23T21:05:07.354Z,-0.15
2023-11-23T21:07:34.568Z,-0.06
2023-11-23T21:10:01.580Z,0.02
2023-11-23T21:12:30.178Z,-0.25
2023-11-23T21:14:57.008Z,0.02
2023-11-23T21:17:24.044Z,0.06
2023-11-23T21:19:50.810Z,-0.34
2023-11-23T21:22:17.780Z,-0.36
2023-11-23T21:24:45.699Z,-0.39
2023-11-23T21:27:12.816Z,-0.66
2023-11-23T21:29:39.845Z,-0.55
2023-11-23T21:32:07.245Z,-0.39
2023-11-23T21:34:34.074Z,-0.33
2023-11-23T21:37:00.880Z,-0.15
2023-11-23T21:39:28.329Z,0.02
2023-11-23T21:41:55.126Z,0.20
2023-11-23T21:44:21.917Z,0.42
2023-11-23T21:46:48.802Z,0.41
2023-11-23T21:49:15.559Z,0.35
2023-11-23T21:51:42.417Z,0.48
2023-11-23T21:54:10.182Z,0.55
2023-11-23T21:56:36.916Z,0.17
2023-11-23T21:59:03.632Z,0.31
2023-11-23T22:01:33.461Z,0.06
2023-11-23T22:04:00.350Z,0.09
2023-11-23T22:06:27.242Z,0.09
2023-11-23T22:08:54.032Z,0.27
2023-11-23T22:11:20.759Z,0.08
2023-11-23T22:13:47.450Z,-0.02
2023-11-23T22:16:14.307Z,0.27
2023-11-23T22:18:41.596Z,0.37
2023-11-23T22:21:08.883Z,0.63
2023-11-23T22:23:36.086Z,0.81
2023-11-23T22:26:03.488Z,0.88
2023-11-23T22:28:30.484Z,0.95
2023-11-23T22:30:57.749Z,1.00
2023-11-23T22:33:25.711Z,1.14
2023-11-23T22:35:52.656Z,0.98
2023-11-23T22:38:19.918Z,1.08
2023-11-23T22:40:47.009Z,1.10
2023-11-23T22:43:14.045Z,1.27
2023-11-23T22:45:41.397Z,1.50
2023-11-23T22:48:08.243Z,1.58
2023-11-23T22:50:35.075Z,1.92
2023-11-23T22:53:01.857Z,2.14
2023-11-23T22:55:29.067Z,2.18
2023-11-23T22:57:56.083Z,2.36
2023-11-23T23:00:26.144Z,2.66
2023-11-23T23:02:53.108Z,2.69
2023-11-23T23:05:19.952Z,2.74
2023-11-23T23:07:46.941Z,2.74
2023-11-23T23:10:15.121Z,2.89
2023-11-23T23:12:42.061Z,3.04
2023-11-23T23:15:09.598Z,3.03
2023-11-23T23:17:36.741Z,3.09
2023-11-23T23:20:07.258Z,3.21
2023-11-23T23:22:34.424Z,3.23
2023-11-23T23:25:01.430Z,3.24
2023-11-23T23:27:28.244Z,3.30
2023-11-23T23:29:55.057Z,3.43
2023-11-23T23:32:24.542Z,3.43
2023-11-23T23:34:52.278Z,3.46
2023-11-23T23:37:19.052Z,3.49
2023-11-23T23:39:45.883Z,3.47
2023-11-23T23:42:12.628Z,3.57
2023-11-23T23:44:39.321Z,3.55
2023-11-23T23:47:08.415Z,3.66
2023-11-23T23:49:35.775Z,3.76
2023-11-23T23:52:03.735Z,3.76
2023-11-23T23:54:30.565Z,3.84
2023-11-23T23:56:58.862Z,3.81
2023-11-23T23:59:26.011Z,3.66
